Time;durP1;ratioP1;P1;durP2;ratioP2;P2;SDS_P1;SDS_P2;PMS_P1;PMS_P2;Temp;Humidity;BMP_temperature;BMP_pressure;BME280_temperature;BME280_humidity;BME280_pressure;Samples;Min_cycle;Max_cycle;Signal;HPM_P1;HPM_P2
2021/03/29 00:00:21;;;;;;;5.70;1.45;;;13.80;63.10;;;;;;5129842;27;20047;-67
2021/03/29 00:02:48;;;;;;;7.85;1.90;;;13.70;63.20;;;;;;5145657;27;20104;-66
2021/03/29 00:05:16;;;;;;;7.30;1.85;;;13.80;63.10;;;;;;5123196;27;20043;-67
2021/03/29 00:07:44;;;;;;;7.55;1.85;;;13.80;63.10;;;;;;5125614;27;20043;-67
2021/03/29 00:10:11;;;;;;;6.45;1.92;;;13.80;62.80;;;;;;5128191;27;20043;-67
2021/03/29 00:12:44;;;;;;;5.43;1.30;;;13.80;62.80;;;;;;5130884;27;20042;-67
2021/03/29 00:15:17;;;;;;;6.20;2.17;;;13.80;62.60;;;;;;5126986;27;20031;-67
2021/03/29 00:17:43;;;;;;;6.10;1.58;;;13.80;62.60;;;;;;5127309;27;20039;-68
2021/03/29 00:20:13;;;;;;;6.78;1.63;;;13.80;62.80;;;;;;5119714;27;20031;-65
2021/03/29 00:22:39;;;;;;;6.25;1.55;;;13.80;62.70;;;;;;5118399;27;20032;-66
2021/03/29 00:25:15;;;;;;;8.13;2.22;;;13.80;62.40;;;;;;5125769;27;20126;-66
2021/03/29 00:27:41;;;;;;;5.97;1.38;;;13.80;62.40;;;;;;5127687;27;20114;-66
2021/03/29 00:30:14;;;;;;;6.28;1.70;;;13.80;62.70;;;;;;5134522;27;20042;-66
2021/03/29 00:32:42;;;;;;;5.40;1.50;;;13.80;62.20;;;;;;5128959;27;20043;-66
2021/03/29 00:35:09;;;;;;;7.80;1.52;;;13.80;62.10;;;;;;5127099;27;20040;-66
2021/03/29 00:37:38;;;;;;;7.57;1.67;;;13.90;62.00;;;;;;5117956;27;20043;-66
2021/03/29 00:40:06;;;;;;;6.05;1.70;;;13.90;61.90;;;;;;5129348;27;20039;-66
2021/03/29 00:42:35;;;;;;;5.68;1.80;;;14.00;62.20;;;;;;5132530;27;20082;-66
2021/03/29 00:45:02;;;;;;;6.95;1.92;;;14.10;61.80;;;;;;5123961;27;20031;-66
2021/03/29 00:47:28;;;;;;;4.82;1.38;;;14.10;61.30;;;;;;5125929;27;20482;-66
2021/03/29 00:49:54;;;;;;;5.70;1.50;;;14.00;61.50;;;;;;5126333;27;20089;-66
2021/03/29 00:52:20;;;;;;;6.60;1.75;;;14.00;61.60;;;;;;5118077;27;20049;-66
2021/03/29 00:54:49;;;;;;;3.00;1.27;;;13.90;61.60;;;;;;5126991;27;20240;-66
2021/03/29 00:57:17;;;;;;;5.82;1.50;;;13.80;61.90;;;;;;5071984;27;22224;-66
2021/03/29 00:59:43;;;;;;;6.20;1.63;;;13.80;61.70;;;;;;5129602;27;20035;-66
2021/03/29 01:02:10;;;;;;;6.97;1.45;;;13.90;61.50;;;;;;5118776;27;20043;-66
2021/03/29 01:04:38;;;;;;;5.65;1.73;;;13.80;61.40;;;;;;5126162;27;20038;-66
2021/03/29 01:07:04;;;;;;;5.15;1.40;;;13.70;61.90;;;;;;5125223;27;20054;-66
2021/03/29 01:09:31;;;;;;;3.97;1.25;;;13.80;62.30;;;;;;5126020;27;20079;-66
2021/03/29 01:12:09;;;;;;;8.60;1.55;;;14.00;62.10;;;;;;5128233;27;20038;-66
2021/03/29 01:14:46;;;;;;;6.50;1.33;;;14.10;61.50;;;;;;5125126;27;20035;-67
2021/03/29 01:17:19;;;;;;;5.03;1.40;;;14.20;61.20;;;;;;5126723;27;20039;-67
2021/03/29 01:19:48;;;;;;;6.57;1.95;;;14.10;61.10;;;;;;5129216;27;20042;-67
2021/03/29 01:22:16;;;;;;;7.07;1.65;;;14.10;61.10;;;;;;5117735;27;20398;-67
2021/03/29 01:24:55;;;;;;;7.95;1.75;;;14.10;61.20;;;;;;5124052;27;20153;-67
2021/03/29 01:27:27;;;;;;;5.28;1.48;;;14.00;60.90;;;;;;5127062;27;20043;-66
2021/03/29 01:29:55;;;;;;;6.93;1.33;;;14.00;61.00;;;;;;5126275;27;20034;-67
2021/03/29 01:32:21;;;;;;;5.57;1.65;;;13.90;61.00;;;;;;5127819;27;20030;-67
2021/03/29 01:34:48;;;;;;;5.32;1.58;;;14.00;61.30;;;;;;5122655;27;22331;-67
2021/03/29 01:37:14;;;;;;;8.25;1.52;;;14.00;61.00;;;;;;5129226;27;20031;-67
2021/03/29 01:39:42;;;;;;;5.78;1.55;;;14.10;60.80;;;;;;5128334;27;20054;-67
2021/03/29 01:42:10;;;;;;;8.27;1.75;;;14.10;60.60;;;;;;5127939;27;20046;-67
2021/03/29 01:44:37;;;;;;;4.85;1.45;;;14.00;60.80;;;;;;5128046;27;20494;-67
2021/03/29 01:47:05;;;;;;;9.32;1.92;;;14.00;60.80;;;;;;5124436;27;20039;-67
2021/03/29 01:49:32;;;;;;;7.22;1.50;;;14.00;60.80;;;;;;5126358;27;20035;-66
2021/03/29 01:51:59;;;;;;;5.57;1.50;;;14.00;60.80;;;;;;5127330;27;20066;-71
2021/03/29 01:54:25;;;;;;;6.50;1.40;;;14.00;61.00;;;;;;5121196;27;20041;-71
2021/03/29 01:56:51;;;;;;;4.93;1.38;;;14.00;60.90;;;;;;5127982;27;20035;-71
2021/03/29 01:59:17;;;;;;;8.57;2.35;;;14.00;61.00;;;;;;5117561;27;20038;-71
2021/03/29 02:01:43;;;;;;;6.82;2.33;;;14.00;60.70;;;;;;5117581;27;20035;-67
2021/03/29 02:04:10;;;;;;;6.80;1.75;;;14.00;60.90;;;;;;5124892;27;20030;-66
2021/03/29 02:06:37;;;;;;;4.93;1.50;;;14.00;60.90;;;;;;5124736;27;20042;-70
2021/03/29 02:09:10;;;;;;;4.82;1.75;;;14.10;60.90;;;;;;5116455;27;20037;-71
2021/03/29 02:11:37;;;;;;;9.93;1.63;;;14.10;60.80;;;;;;5127484;27;20083;-70
2021/03/29 02:14:05;;;;;;;3.70;1.10;;;14.00;60.70;;;;;;5127894;27;20409;-71
2021/03/29 02:16:32;;;;;;;6.38;1.90;;;13.90;60.70;;;;;;5127392;27;20051;-71
2021/03/29 02:19:02;;;;;;;4.88;1.48;;;14.00;60.90;;;;;;5127160;27;20569;-70
2021/03/29 02:21:40;;;;;;;5.78;1.75;;;14.00;60.70;;;;;;5131910;27;20043;-71
2021/03/29 02:24:08;;;;;;;3.28;1.27;;;14.00;60.90;;;;;;5123040;27;20054;-66
2021/03/29 02:26:37;;;;;;;7.63;1.95;;;14.10;60.90;;;;;;5124134;27;20062;-66
2021/03/29 02:29:05;;;;;;;5.85;2.10;;;14.10;60.80;;;;;;5124716;27;20059;-66
2021/03/29 02:31:32;;;;;;;6.18;1.38;;;14.10;60.40;;;;;;5129097;27;20031;-66
2021/03/29 02:33:59;;;;;;;8.40;1.40;;;14.10;60.50;;;;;;5128867;27;20034;-66
2021/03/29 02:36:25;;;;;;;6.63;1.70;;;14.00;60.70;;;;;;5131903;27;20039;-71
2021/03/29 02:38:52;;;;;;;5.75;1.65;;;13.90;60.70;;;;;;5104833;27;20125;-72
2021/03/29 02:41:23;;;;;;;7.18;1.98;;;13.90;60.90;;;;;;5132108;27;20039;-72
2021/03/29 02:43:51;;;;;;;4.85;1.70;;;13.80;61.00;;;;;;5124335;27;20036;-72
2021/03/29 02:46:21;;;;;;;4.82;1.80;;;13.90;61.30;;;;;;5125180;27;20034;-71
2021/03/29 02:48:48;;;;;;;5.30;1.67;;;13.90;60.90;;;;;;5125707;27;20062;-70
2021/03/29 02:51:34;;;;;;;8.30;1.58;;;14.10;60.80;;;;;;5130660;27;20216;-72
2021/03/29 02:54:05;;;;;;;5.28;1.48;;;14.10;60.50;;;;;;5129584;27;20498;-72
2021/03/29 02:56:54;;;;;;;8.00;1.95;;;14.10;60.50;;;;;;5127505;27;20042;-71
2021/03/29 02:59:21;;;;;;;7.68;2.10;;;14.00;60.30;;;;;;5130837;27;20030;-71
2021/03/29 03:01:48;;;;;;;6.68;1.60;;;13.90;60.60;;;;;;5135978;27;20039;-71
2021/03/29 03:04:16;;;;;;;8.07;1.92;;;13.90;60.60;;;;;;5125797;27;20130;-71
2021/03/29 03:06:45;;;;;;;6.35;1.60;;;13.80;60.90;;;;;;5129837;27;20071;-72
2021/03/29 03:09:13;;;;;;;9.27;1.80;;;13.80;60.80;;;;;;5129300;27;20031;-71
2021/03/29 03:11:43;;;;;;;3.83;1.63;;;13.70;61.00;;;;;;5134000;27;21082;-71
2021/03/29 03:14:09;;;;;;;8.77;2.72;;;13.70;61.00;;;;;;5128684;27;20031;-71
2021/03/29 03:16:39;;;;;;;5.82;1.55;;;13.70;61.00;;;;;;5130004;27;20211;-71
2021/03/29 03:19:08;;;;;;;9.05;2.15;;;13.60;61.20;;;;;;5133265;27;20047;-71
2021/03/29 03:21:35;;;;;;;7.35;2.15;;;13.60;61.40;;;;;;5134471;27;20127;-71
2021/03/29 03:24:02;;;;;;;8.25;2.22;;;13.50;61.40;;;;;;5130126;27;20039;-71
2021/03/29 03:26:31;;;;;;;6.82;1.67;;;13.50;61.50;;;;;;5127160;27;20044;-71
2021/03/29 03:28:59;;;;;;;8.57;2.25;;;13.50;61.60;;;;;;5128839;27;20027;-71
2021/03/29 03:31:25;;;;;;;7.22;1.90;;;13.50;61.70;;;;;;5121651;27;20717;-71
2021/03/29 03:33:51;;;;;;;6.05;1.85;;;13.40;61.70;;;;;;5129424;27;20120;-71
2021/03/29 03:36:19;;;;;;;5.45;1.63;;;13.30;61.80;;;;;;5125940;27;20077;-71
2021/03/29 03:38:47;;;;;;;5.55;1.77;;;13.40;62.00;;;;;;5120676;27;20046;-71
2021/03/29 03:41:32;;;;;;;5.43;2.08;;;13.40;62.00;;;;;;5132545;27;20038;-71
2021/03/29 03:44:00;;;;;;;7.15;1.88;;;13.30;62.10;;;;;;5127266;27;20066;-71
2021/03/29 03:46:38;;;;;;;5.43;2.20;;;13.30;62.20;;;;;;5127576;27;20093;-71
2021/03/29 03:49:09;;;;;;;9.27;2.20;;;13.30;62.20;;;;;;5145016;27;20111;-71
2021/03/29 03:51:35;;;;;;;6.90;2.17;;;13.20;62.40;;;;;;5132578;27;20062;-71
2021/03/29 03:54:02;;;;;;;5.28;1.95;;;13.20;62.50;;;;;;5128306;27;20034;-70
2021/03/29 03:56:33;;;;;;;9.63;1.90;;;13.30;62.50;;;;;;5126830;27;20113;-70
2021/03/29 03:58:59;;;;;;;6.32;2.08;;;13.30;62.50;;;;;;5119248;27;20505;-71
2021/03/29 04:01:24;;;;;;;10.30;1.92;;;13.30;62.50;;;;;;5132318;27;20063;-71
2021/03/29 04:03:50;;;;;;;10.43;2.03;;;13.30;62.50;;;;;;5127446;27;20039;-70
2021/03/29 04:06:16;;;;;;;6.55;2.35;;;13.20;62.60;;;;;;5128088;27;20039;-71
2021/03/29 04:08:46;;;;;;;11.90;2.28;;;13.30;62.70;;;;;;5118756;27;20058;-72
2021/03/29 04:11:12;;;;;;;6.68;2.10;;;13.40;62.60;;;;;;5127719;27;20030;-70
2021/03/29 04:13:38;;;;;;;9.00;2.15;;;13.40;62.40;;;;;;5129015;27;20035;-71
2021/03/29 04:16:06;;;;;;;6.90;2.17;;;13.50;62.20;;;;;;5128359;27;20094;-71
2021/03/29 04:18:33;;;;;;;9.32;2.10;;;13.50;62.10;;;;;;5130512;27;20042;-71
2021/03/29 04:20:59;;;;;;;5.28;2.08;;;13.60;62.00;;;;;;5130335;27;20161;-71
2021/03/29 04:23:26;;;;;;;8.40;2.08;;;13.50;61.90;;;;;;5126187;27;20114;-71
2021/03/29 04:25:53;;;;;;;8.38;2.05;;;13.50;62.00;;;;;;5127335;27;20031;-71
2021/03/29 04:28:19;;;;;;;7.50;1.70;;;13.50;62.00;;;;;;5127081;27;20039;-70
2021/03/29 04:30:45;;;;;;;6.43;1.90;;;13.50;62.10;;;;;;5126789;27;20038;-70
2021/03/29 04:33:11;;;;;;;6.57;1.75;;;13.40;62.10;;;;;;5130035;27;20538;-71
2021/03/29 04:35:37;;;;;;;4.57;1.88;;;13.40;62.30;;;;;;5115485;27;20039;-71
2021/03/29 04:38:03;;;;;;;5.28;1.70;;;13.30;62.40;;;;;;5129542;27;20043;-71
2021/03/29 04:40:30;;;;;;;7.10;1.90;;;13.30;62.40;;;;;;5129554;27;20026;-71
2021/03/29 04:42:56;;;;;;;7.90;2.55;;;13.20;62.60;;;;;;5131579;27;20627;-71
2021/03/29 04:45:23;;;;;;;7.68;1.70;;;13.30;62.80;;;;;;5125923;27;20042;-71
2021/03/29 04:47:49;;;;;;;5.63;2.10;;;13.30;62.70;;;;;;5130301;27;20031;-71
2021/03/29 04:50:17;;;;;;;6.57;1.95;;;13.40;62.60;;;;;;5130146;27;20039;-71
2021/03/29 04:52:44;;;;;;;7.15;1.80;;;13.40;62.40;;;;;;5128216;27;20030;-71
2021/03/29 04:55:12;;;;;;;8.52;2.20;;;13.30;62.50;;;;;;5126619;27;20751;-67
2021/03/29 04:57:38;;;;;;;6.55;2.00;;;13.30;62.60;;;;;;5125845;27;20136;-66
2021/03/29 05:00:06;;;;;;;8.45;2.20;;;13.20;62.70;;;;;;5128828;27;20056;-66
2021/03/29 05:02:32;;;;;;;8.15;2.58;;;13.20;62.90;;;;;;5130248;27;20042;-67
2021/03/29 05:04:58;;;;;;;9.30;2.10;;;13.20;62.80;;;;;;5123217;27;20031;-67
2021/03/29 05:07:24;;;;;;;6.75;2.00;;;13.30;62.70;;;;;;5114073;27;20039;-67
2021/03/29 05:09:50;;;;;;;9.38;2.67;;;13.30;62.50;;;;;;5124031;27;20038;-66
2021/03/29 05:12:22;;;;;;;13.07;2.70;;;13.30;62.40;;;;;;5122677;27;20033;-66
2021/03/29 05:14:49;;;;;;;6.68;2.00;;;13.40;62.40;;;;;;5124269;27;20031;-67
2021/03/29 05:17:16;;;;;;;7.90;2.50;;;13.30;62.40;;;;;;5126627;27;20159;-67
2021/03/29 05:19:42;;;;;;;5.47;1.55;;;13.30;62.70;;;;;;5130337;27;20058;-67
2021/03/29 05:22:08;;;;;;;7.75;2.30;;;13.20;62.80;;;;;;5126287;27;20466;-67
2021/03/29 05:24:35;;;;;;;8.38;2.17;;;13.20;62.90;;;;;;5130414;27;20038;-67
2021/03/29 05:27:02;;;;;;;8.15;1.90;;;13.20;63.20;;;;;;5100401;27;20143;-67
2021/03/29 05:29:28;;;;;;;8.65;2.40;;;13.10;63.30;;;;;;5128327;27;20039;-69
2021/03/29 05:31:58;;;;;;;8.32;2.13;;;13.10;63.50;;;;;;5116848;27;20698;-66
2021/03/29 05:34:25;;;;;;;23.25;3.35;;;13.10;63.60;;;;;;5124643;27;20035;-67
2021/03/29 05:36:51;;;;;;;8.15;1.90;;;13.10;63.60;;;;;;5131630;27;20061;-66
2021/03/29 05:39:17;;;;;;;10.90;2.30;;;13.10;63.60;;;;;;5128092;27;20106;-66
2021/03/29 05:41:43;;;;;;;5.65;1.92;;;13.10;63.50;;;;;;5127431;27;20371;-66
2021/03/29 05:44:10;;;;;;;13.38;2.53;;;13.10;63.80;;;;;;5125102;27;20386;-65
2021/03/29 05:46:40;;;;;;;8.95;2.58;;;13.10;64.10;;;;;;5117908;27;20036;-66
2021/03/29 05:49:07;;;;;;;10.20;3.20;;;13.20;64.60;;;;;;5124472;27;20032;-66
2021/03/29 05:51:40;;;;;;;8.02;2.28;;;13.20;65.00;;;;;;5141554;27;20099;-66
2021/03/29 05:54:07;;;;;;;11.00;3.13;;;13.20;65.30;;;;;;5128840;27;20381;-66
2021/03/29 05:56:39;;;;;;;9.43;2.15;;;13.20;65.30;;;;;;5124765;27;20077;-66
2021/03/29 06:01:50;;;;;;;11.25;2.67;;;13.00;64.90;;;;;;5127593;27;20530;-65
2021/03/29 06:04:45;;;;;;;7.10;2.20;;;12.90;65.10;;;;;;5126214;27;20035;-66
2021/03/29 06:07:31;;;;;;;7.82;2.42;;;12.70;65.30;;;;;;5123627;27;20039;-66
2021/03/29 06:10:09;;;;;;;11.52;2.60;;;12.60;65.50;;;;;;5125848;27;20031;-65
2021/03/29 06:12:43;;;;;;;10.80;2.22;;;12.60;65.70;;;;;;5131313;27;20499;-66
2021/03/29 06:15:10;;;;;;;7.75;2.15;;;12.50;66.60;;;;;;5122034;27;20038;-65
2021/03/29 06:17:37;;;;;;;10.27;2.53;;;12.40;66.30;;;;;;5123931;27;20039;-64
2021/03/29 06:20:04;;;;;;;8.85;2.88;;;12.40;66.50;;;;;;5126499;27;20115;-64
2021/03/29 06:22:36;;;;;;;8.57;2.40;;;12.30;66.50;;;;;;5115253;27;20031;-65
2021/03/29 06:25:10;;;;;;;13.70;2.70;;;12.30;66.50;;;;;;5123245;27;20439;-64
2021/03/29 06:27:57;;;;;;;9.27;2.30;;;12.30;66.70;;;;;;5130702;27;20042;-64
2021/03/29 06:30:24;;;;;;;12.27;2.90;;;12.30;66.80;;;;;;5135806;27;20047;-65
2021/03/29 06:33:05;;;;;;;14.45;2.65;;;12.30;66.80;;;;;;5125560;27;20031;-65
2021/03/29 06:35:53;;;;;;;11.10;3.03;;;12.50;66.70;;;;;;5128327;27;20057;-65
2021/03/29 06:38:20;;;;;;;8.15;2.75;;;12.70;66.20;;;;;;5119065;27;20070;-65
2021/03/29 06:40:52;;;;;;;11.90;2.65;;;12.80;65.80;;;;;;5133094;27;20034;-65
2021/03/29 06:43:38;;;;;;;10.23;2.45;;;12.90;65.40;;;;;;5133601;27;20041;-66
2021/03/29 06:46:08;;;;;;;12.55;2.72;;;13.10;65.10;;;;;;5129349;27;20168;-66
2021/03/29 06:48:37;;;;;;;9.55;2.95;;;13.20;64.70;;;;;;5131163;27;20031;-66
2021/03/29 06:51:22;;;;;;;9.63;2.28;;;13.30;64.50;;;;;;5136533;27;20038;-66
2021/03/29 06:53:58;;;;;;;13.02;3.25;;;13.50;64.30;;;;;;5127705;27;20039;-66
2021/03/29 06:56:30;;;;;;;9.25;3.15;;;13.60;63.80;;;;;;5127178;27;20468;-66
2021/03/29 06:59:08;;;;;;;12.93;3.15;;;13.80;63.60;;;;;;5128041;27;20039;-66
2021/03/29 07:01:49;;;;;;;10.05;3.30;;;13.90;63.20;;;;;;5131568;27;20482;-66
2021/03/29 07:04:21;;;;;;;8.35;3.05;;;14.00;62.90;;;;;;5130583;27;20043;-66
2021/03/29 07:06:49;;;;;;;8.82;2.90;;;14.10;62.70;;;;;;5129621;27;20032;-66
2021/03/29 07:09:16;;;;;;;8.82;2.30;;;14.30;62.30;;;;;;5131259;27;20078;-66
2021/03/29 07:11:44;;;;;;;8.65;2.85;;;14.40;62.10;;;;;;5121209;27;20051;-66
2021/03/29 07:14:12;;;;;;;9.95;2.50;;;14.40;61.90;;;;;;5130967;27;20039;-65
2021/03/29 07:16:40;;;;;;;12.35;2.78;;;14.60;61.80;;;;;;5126748;27;20455;-65
2021/03/29 07:19:08;;;;;;;8.38;2.97;;;14.80;61.30;;;;;;5129461;27;20479;-65
2021/03/29 07:21:35;;;;;;;13.20;2.72;;;14.90;60.80;;;;;;5133607;27;20133;-65
2021/03/29 07:24:09;;;;;;;11.60;2.72;;;15.00;60.70;;;;;;5131119;27;20027;-65
2021/03/29 07:26:46;;;;;;;9.40;2.55;;;15.20;60.50;;;;;;5126654;27;20050;-66
2021/03/29 07:29:22;;;;;;;11.57;2.85;;;15.20;60.20;;;;;;5129987;27;20423;-65
2021/03/29 07:31:59;;;;;;;9.27;2.85;;;15.20;60.20;;;;;;5135825;27;20068;-65
2021/03/29 07:34:44;;;;;;;11.77;2.70;;;15.20;60.10;;;;;;5125296;27;20040;-65
2021/03/29 07:37:40;;;;;;;10.25;2.15;;;15.40;59.90;;;;;;5125720;27;20039;-66
2021/03/29 07:40:18;;;;;;;12.32;3.20;;;15.50;60.00;;;;;;5127059;27;20035;-66
2021/03/29 07:42:45;;;;;;;8.15;2.67;;;15.50;60.00;;;;;;5131205;27;20134;-66
2021/03/29 07:45:39;;;;;;;9.73;2.85;;;15.50;60.00;;;;;;5124411;27;20067;-66
2021/03/29 07:48:05;;;;;;;9.95;2.90;;;15.70;59.70;;;;;;5131560;27;20035;-66
2021/03/29 07:50:31;;;;;;;11.80;2.80;;;15.70;59.60;;;;;;5131247;27;20121;-66
2021/03/29 07:52:59;;;;;;;10.52;2.75;;;15.80;59.60;;;;;;5130659;27;20409;-66
2021/03/29 07:55:26;;;;;;;8.73;2.58;;;15.90;59.40;;;;;;5127275;27;20031;-66
2021/03/29 07:57:55;;;;;;;9.55;2.88;;;16.10;59.20;;;;;;5129247;27;20087;-66
2021/03/29 08:00:24;;;;;;;9.85;2.65;;;16.30;58.90;;;;;;5127272;27;20031;-65
2021/03/29 08:02:54;;;;;;;13.20;2.70;;;16.30;58.60;;;;;;5126704;27;20126;-64
2021/03/29 08:05:38;;;;;;;11.35;2.92;;;16.40;58.60;;;;;;5126092;27;20035;-65
2021/03/29 08:11:19;;;;;;;7.80;2.30;;;16.60;58.40;;;;;;5125699;27;20585;-67
2021/03/29 08:13:49;;;;;;;;;;;16.60;58.10;;;;;;5126270;27;20039;-67
2021/03/29 08:16:22;;;;;;;8.82;3.05;;;16.50;58.70;;;;;;5120892;27;19919;-67
2021/03/29 08:19:14;;;;;;;10.52;2.90;;;16.50;58.60;;;;;;5131919;27;20038;-67
2021/03/29 08:21:57;;;;;;;14.13;2.50;;;16.70;58.60;;;;;;5120627;27;20063;-67
2021/03/29 08:24:42;;;;;;;13.05;3.33;;;16.90;58.50;;;;;;5130950;27;20145;-69
2021/03/29 08:27:30;;;;;;;11.43;2.70;;;17.00;58.10;;;;;;5134345;27;20035;-65
2021/03/29 08:30:13;;;;;;;11.90;3.53;;;17.00;58.20;;;;;;5126074;27;20035;-66
2021/03/29 08:32:40;;;;;;;9.20;2.53;;;17.10;58.20;;;;;;5129976;27;20482;-67
2021/03/29 08:35:14;;;;;;;8.63;2.88;;;17.10;57.90;;;;;;5126868;27;20088;-66
2021/03/29 08:37:42;;;;;;;11.60;2.60;;;17.30;57.80;;;;;;5130655;27;20798;-65
2021/03/29 08:40:22;;;;;;;16.23;3.42;;;17.30;57.70;;;;;;5128218;27;20031;-64
2021/03/29 08:42:51;;;;;;;13.25;4.00;;;17.50;57.50;;;;;;5127640;27;20054;-67
2021/03/29 08:45:20;;;;;;;14.88;2.90;;;17.60;57.20;;;;;;5128721;27;20483;-68
2021/03/29 08:47:51;;;;;;;16.05;3.70;;;17.70;57.20;;;;;;5123323;27;20044;-68
2021/03/29 08:50:19;;;;;;;12.50;3.13;;;17.80;57.30;;;;;;5127707;27;20042;-69
2021/03/29 08:52:51;;;;;;;11.77;3.35;;;17.80;57.10;;;;;;5125542;27;20049;-69
2021/03/29 08:55:19;;;;;;;12.35;3.33;;;17.90;56.90;;;;;;5117889;27;20050;-69
2021/03/29 08:57:56;;;;;;;16.67;3.40;;;17.90;57.00;;;;;;5118862;27;20501;-68
2021/03/29 09:00:36;;;;;;;13.85;3.85;;;17.90;57.30;;;;;;5129417;27;20059;-68
2021/03/29 09:03:02;;;;;;;8.75;2.78;;;18.00;56.90;;;;;;5126741;27;20062;-68
2021/03/29 09:05:28;;;;;;;14.52;3.78;;;18.00;57.00;;;;;;5122637;27;20121;-69
2021/03/29 09:07:54;;;;;;;13.95;2.83;;;18.20;56.80;;;;;;5127247;27;20034;-71
2021/03/29 09:10:34;;;;;;;14.40;2.90;;;18.30;56.40;;;;;;5128807;27;20038;-71
2021/03/29 09:13:05;;;;;;;14.45;3.22;;;18.20;56.10;;;;;;5125215;27;20153;-66
2021/03/29 09:15:36;;;;;;;11.93;2.92;;;18.10;56.30;;;;;;5124075;27;20051;-69
2021/03/29 09:18:09;;;;;;;14.82;3.53;;;18.10;56.50;;;;;;5128485;27;20183;-67
2021/03/29 09:20:41;;;;;;;10.70;3.22;;;18.00;56.70;;;;;;5127777;27;20054;-68
2021/03/29 09:23:11;;;;;;;17.95;3.42;;;18.10;57.00;;;;;;5126757;27;20047;-68
2021/03/29 09:25:39;;;;;;;10.48;2.90;;;18.10;56.70;;;;;;5129300;27;20039;-71
2021/03/29 09:28:22;;;;;;;14.18;3.20;;;18.10;57.10;;;;;;5129386;27;20035;-70
2021/03/29 09:30:51;;;;;;;10.82;4.32;;;18.10;56.90;;;;;;5126125;27;20031;-70
2021/03/29 09:33:18;;;;;;;11.63;3.30;;;18.20;57.00;;;;;;5127235;27;20036;-69
2021/03/29 09:35:45;;;;;;;16.25;4.05;;;18.30;56.80;;;;;;5133710;27;20134;-69
2021/03/29 09:38:13;;;;;;;11.88;3.42;;;18.30;56.40;;;;;;5123513;27;20036;-70
2021/03/29 09:40:39;;;;;;;11.30;3.30;;;18.30;56.80;;;;;;5126163;27;20118;-68
2021/03/29 09:43:06;;;;;;;12.02;3.08;;;18.30;56.50;;;;;;5125622;27;20509;-68
2021/03/29 09:45:34;;;;;;;15.02;3.78;;;18.30;56.60;;;;;;5130588;27;20031;-67
2021/03/29 09:48:09;;;;;;;12.80;3.95;;;18.20;56.40;;;;;;5127820;27;20047;-66
2021/03/29 09:50:43;;;;;;;11.95;3.33;;;18.20;57.00;;;;;;5124239;27;20042;-67
2021/03/29 09:53:12;;;;;;;12.70;3.00;;;18.10;57.20;;;;;;5126514;27;20039;-66
2021/03/29 09:55:54;;;;;;;13.05;3.53;;;18.00;57.10;;;;;;5119227;27;20496;-66
2021/03/29 09:58:42;;;;;;;11.88;3.35;;;17.80;57.30;;;;;;5124145;27;20034;-67
2021/03/29 10:01:19;;;;;;;13.88;3.45;;;17.80;57.90;;;;;;5121288;27;20035;-67
2021/03/29 10:03:59;;;;;;;12.82;4.05;;;17.80;58.20;;;;;;5124262;27;20035;-67
2021/03/29 10:06:28;;;;;;;13.82;3.33;;;17.90;58.00;;;;;;5127335;27;20482;-67
2021/03/29 10:09:04;;;;;;;15.88;4.60;;;17.90;57.80;;;;;;5099857;27;20466;-71
2021/03/29 10:11:47;;;;;;;13.68;3.55;;;17.90;57.70;;;;;;5125783;27;20077;-71
2021/03/29 10:14:15;;;;;;;14.40;3.83;;;17.80;57.60;;;;;;5100594;27;20031;-73
2021/03/29 10:16:45;;;;;;;14.07;4.05;;;17.70;58.20;;;;;;5123329;27;20414;-73
2021/03/29 10:19:14;;;;;;;11.55;4.10;;;17.50;58.70;;;;;;5123305;27;20317;-73
2021/03/29 10:22:15;;;;;;;16.10;3.88;;;17.40;58.90;;;;;;5124735;27;20046;-73
2021/03/29 10:25:04;;;;;;;13.75;4.90;;;17.30;58.70;;;;;;5116888;27;20475;-71
2021/03/29 10:27:46;;;;;;;15.85;3.85;;;17.00;59.20;;;;;;5116857;27;20114;-70
2021/03/29 10:30:25;;;;;;;14.35;3.75;;;17.00;60.00;;;;;;5123866;27;20110;-70
2021/03/29 10:32:59;;;;;;;12.52;3.47;;;16.90;60.20;;;;;;5127678;27;20088;-70
2021/03/29 10:35:27;;;;;;;15.48;4.18;;;16.90;60.40;;;;;;5094447;27;20407;-71
2021/03/29 10:37:53;;;;;;;15.55;3.92;;;16.80;60.50;;;;;;5117973;27;20035;-71
2021/03/29 10:40:20;;;;;;;15.45;4.55;;;16.70;60.70;;;;;;5123946;27;20034;-71
2021/03/29 10:42:47;;;;;;;10.52;3.70;;;16.60;60.80;;;;;;5100468;28;20051;-72
2021/03/29 10:45:18;;;;;;;14.95;4.18;;;16.60;61.10;;;;;;5124987;27;20407;-73
2021/03/29 10:47:44;;;;;;;12.68;4.30;;;16.60;61.80;;;;;;5130190;27;20051;-74
2021/03/29 10:50:13;;;;;;;13.10;4.10;;;16.70;61.60;;;;;;5098147;27;20031;-71
2021/03/29 10:52:39;;;;;;;11.65;4.03;;;16.80;61.30;;;;;;5121876;27;20041;-72
2021/03/29 10:55:06;;;;;;;14.05;3.85;;;16.90;61.10;;;;;;5139751;27;20043;-71
2021/03/29 10:57:32;;;;;;;9.70;3.83;;;16.90;61.00;;;;;;5128630;27;20037;-71
2021/03/29 10:59:58;;;;;;;12.68;4.18;;;16.90;61.10;;;;;;5131571;27;20043;-71
2021/03/29 11:02:24;;;;;;;11.98;3.95;;;16.90;61.50;;;;;;5127270;27;20474;-71
2021/03/29 11:04:49;;;;;;;10.70;3.50;;;16.90;61.30;;;;;;5119841;27;20037;-73
2021/03/29 11:07:15;;;;;;;14.95;4.68;;;16.90;61.20;;;;;;5124297;27;20260;-72
2021/03/29 11:09:41;;;;;;;14.32;5.13;;;16.90;61.30;;;;;;5125148;27;20031;-73
2021/03/29 11:12:08;;;;;;;14.77;3.92;;;16.90;61.20;;;;;;5117424;27;20069;-73
2021/03/29 11:14:34;;;;;;;11.45;4.28;;;16.90;61.30;;;;;;5129820;27;20034;-73
2021/03/29 11:17:01;;;;;;;13.55;4.55;;;16.80;61.60;;;;;;5114414;27;20042;-72
2021/03/29 11:19:27;;;;;;;14.48;3.90;;;16.80;61.70;;;;;;5129717;27;20093;-74
2021/03/29 11:21:53;;;;;;;13.95;3.83;;;16.80;61.60;;;;;;5131153;27;20505;-74
2021/03/29 11:24:20;;;;;;;13.77;3.90;;;16.70;61.80;;;;;;5128271;27;20040;-74
2021/03/29 11:26:47;;;;;;;12.40;3.92;;;16.70;62.10;;;;;;5131799;27;20038;-74
2021/03/29 11:29:13;;;;;;;14.82;3.95;;;16.70;62.00;;;;;;5125724;27;20043;-74
2021/03/29 11:31:41;;;;;;;13.32;3.97;;;16.70;61.90;;;;;;5130225;27;20042;-74
2021/03/29 11:34:07;;;;;;;11.85;3.85;;;16.70;62.10;;;;;;5132151;27;20038;-73
2021/03/29 11:36:33;;;;;;;13.00;3.53;;;16.70;61.90;;;;;;5128640;27;20036;-73
2021/03/29 11:38:59;;;;;;;17.58;3.97;;;16.70;62.20;;;;;;5126730;27;20034;-74
2021/03/29 11:41:25;;;;;;;12.05;3.70;;;16.70;62.30;;;;;;5113571;27;20047;-73
2021/03/29 11:43:52;;;;;;;18.08;4.85;;;16.70;62.20;;;;;;5130244;27;20118;-74
2021/03/29 11:46:18;;;;;;;17.70;4.45;;;16.70;61.90;;;;;;5117001;27;20035;-72
2021/03/29 11:48:44;;;;;;;16.05;5.25;;;16.70;62.00;;;;;;5130460;27;20505;-72
2021/03/29 11:51:10;;;;;;;15.18;4.47;;;16.70;62.00;;;;;;5133271;27;20039;-73
2021/03/29 11:53:37;;;;;;;15.77;4.55;;;16.70;62.10;;;;;;5100371;27;20176;-73
2021/03/29 11:56:04;;;;;;;10.43;4.57;;;16.80;61.90;;;;;;5128382;27;20035;-72
2021/03/29 11:58:29;;;;;;;11.13;4.72;;;16.70;61.80;;;;;;5102533;27;20035;-72
2021/03/29 12:01:00;;;;;;;11.48;4.60;;;16.70;61.90;;;;;;5129197;27;20030;-73
2021/03/29 12:03:33;;;;;;;13.45;3.97;;;16.80;62.10;;;;;;5107713;27;20027;-70
2021/03/29 12:06:04;;;;;;;13.40;4.75;;;16.80;62.00;;;;;;5125337;27;20078;-70
2021/03/29 12:09:09;;;;;;;18.13;4.88;;;16.80;62.00;;;;;;5119714;27;20041;-71
2021/03/29 12:12:08;;;;;;;10.93;4.60;;;16.70;62.00;;;;;;5129313;27;20075;-69
2021/03/29 12:14:08;;;;;;;13.82;3.95;;;16.60;62.10;;;;;;5116554;27;20041;-74
2021/03/29 12:16:40;;;;;;;11.60;4.03;;;16.60;62.10;;;;;;5121285;27;20035;-74
2021/03/29 12:19:07;;;;;;;13.80;4.78;;;16.70;62.20;;;;;;5129274;27;20050;-70
2021/03/29 12:21:36;;;;;;;11.70;3.95;;;16.70;62.00;;;;;;5127510;27;20066;-70
2021/03/29 12:24:13;;;;;;;12.32;3.67;;;16.80;62.50;;;;;;5127037;27;20167;-70
2021/03/29 12:26:40;;;;;;;11.23;3.35;;;16.90;62.30;;;;;;5129545;27;20215;-70
2021/03/29 12:29:08;;;;;;;15.25;4.20;;;17.10;61.60;;;;;;5120293;27;20058;-70
2021/03/29 12:31:36;;;;;;;9.80;2.70;;;17.20;61.20;;;;;;5124223;27;20057;-70
2021/03/29 12:34:03;;;;;;;11.13;2.63;;;17.30;60.70;;;;;;5129220;27;20117;-69
2021/03/29 12:36:37;;;;;;;15.20;4.40;;;17.50;60.20;;;;;;5126197;27;20042;-68
2021/03/29 12:39:13;;;;;;;11.75;4.03;;;17.60;60.00;;;;;;5120160;27;20089;-69
2021/03/29 12:41:44;;;;;;;14.00;3.67;;;17.70;59.90;;;;;;5128206;27;20084;-71
2021/03/29 12:44:18;;;;;;;15.20;3.83;;;17.60;60.00;;;;;;5130661;27;20100;-69
2021/03/29 12:46:51;;;;;;;14.43;3.55;;;17.70;60.10;;;;;;5124518;27;20128;-70
2021/03/29 12:49:17;;;;;;;13.57;3.75;;;17.60;60.50;;;;;;5128207;27;20035;-69
2021/03/29 12:51:44;;;;;;;9.75;3.60;;;17.60;59.90;;;;;;5127048;27;20056;-70
2021/03/29 12:54:12;;;;;;;14.68;4.10;;;17.70;60.20;;;;;;5118606;27;20030;-69
2021/03/29 12:56:41;;;;;;;14.43;4.68;;;17.60;60.00;;;;;;5119539;27;20757;-69
2021/03/29 12:59:08;;;;;;;12.27;4.32;;;17.70;60.30;;;;;;5130399;27;20477;-68
2021/03/29 13:01:36;;;;;;;14.60;5.47;;;17.60;60.10;;;;;;5124403;27;20039;-70
2021/03/29 13:04:14;;;;;;;15.27;4.20;;;17.60;60.30;;;;;;5124366;27;20896;-70